createdAt,value
2023-04-08T00:01:41.470Z,22.07
2023-04-08T00:04:09.822Z,20.77
2023-04-08T00:06:37.368Z,20.90
2023-04-08T00:09:04.064Z,22.43
2023-04-08T00:11:30.668Z,18.60
2023-04-08T00:13:57.256Z,19.13
2023-04-08T00:16:24.117Z,22.17
2023-04-08T00:18:51.330Z,22.03
2023-04-08T00:21:20.641Z,24.03
2023-04-08T00:23:47.804Z,21.80
2023-04-08T00:26:14.537Z,24.03
2023-04-08T00:28:43.278Z,27.17
2023-04-08T00:31:09.982Z,25.73
2023-04-08T00:33:36.753Z,27.43
2023-04-08T00:36:03.510Z,26.67
2023-04-08T00:38:31.861Z,26.50
2023-04-08T00:40:58.883Z,23.57
2023-04-08T00:43:25.540Z,24.27
2023-04-08T00:45:52.660Z,22.03
2023-04-08T00:48:19.354Z,22.93
2023-04-08T00:50:47.466Z,22.10
2023-04-08T00:53:17.881Z,24.57
2023-04-08T00:55:44.803Z,24.97
2023-04-08T00:58:11.835Z,24.23
2023-04-08T01:00:39.313Z,19.90
2023-04-08T01:03:12.977Z,19.07
2023-04-08T01:05:41.639Z,26.27
2023-04-08T01:08:08.629Z,25.47
2023-04-08T01:10:35.651Z,27.87
2023-04-08T01:13:05.395Z,26.93
2023-04-08T01:15:32.107Z,30.07
2023-04-08T01:17:59.064Z,26.13
2023-04-08T01:20:25.983Z,23.93
2023-04-08T01:23:02.236Z,25.73
2023-04-08T01:25:32.837Z,24.43
2023-04-08T01:28:06.285Z,21.23
2023-04-08T01:30:32.949Z,21.43
2023-04-08T01:32:59.892Z,24.63
2023-04-08T01:35:26.507Z,25.73
2023-04-08T01:37:53.156Z,22.53
2023-04-08T01:40:22.326Z,25.43
2023-04-08T02:15:14.517Z,24.23
2023-04-08T02:17:42.040Z,21.63
2023-04-08T02:20:10.605Z,24.17
2023-04-08T02:22:39.061Z,21.93
2023-04-08T02:25:07.771Z,17.67
2023-04-08T02:27:34.512Z,16.97
2023-04-08T02:30:01.147Z,20.47
2023-04-08T02:32:27.804Z,17.13
2023-04-08T02:34:54.600Z,17.50
2023-04-08T02:37:23.204Z,20.30
2023-04-08T02:39:49.704Z,17.00
2023-04-08T02:42:16.637Z,15.37
2023-04-08T02:44:43.234Z,20.70
2023-04-08T02:47:10.935Z,20.93
2023-04-08T02:49:37.494Z,32.00
2023-04-08T02:52:04.629Z,29.17
2023-04-08T02:54:31.351Z,46.63
2023-04-08T02:56:57.938Z,20.00
2023-04-08T02:59:24.518Z,21.27
2023-04-08T03:01:51.153Z,30.80
2023-04-08T03:04:18.090Z,21.27
2023-04-08T03:06:44.766Z,26.73
2023-04-08T03:09:11.453Z,19.83
2023-04-08T03:11:38.017Z,17.87
2023-04-08T03:14:06.056Z,18.67
2023-04-08T03:16:32.818Z,19.57
2023-04-08T03:19:00.002Z,19.77
2023-04-08T03:21:27.462Z,30.03
2023-04-08T03:23:54.048Z,23.77
2023-04-08T03:26:21.570Z,44.40
2023-04-08T03:28:48.484Z,57.40
2023-04-08T03:31:15.758Z,39.67
2023-04-08T03:33:42.391Z,39.00
2023-04-08T03:36:09.056Z,46.40
2023-04-08T03:38:35.941Z,79.97
2023-04-08T03:41:02.634Z,84.97
2023-04-08T03:43:29.249Z,57.73
2023-04-08T03:45:56.293Z,41.87
2023-04-08T03:48:23.161Z,43.17
2023-04-08T03:50:50.983Z,37.37
2023-04-08T03:53:17.765Z,39.67
2023-04-08T03:55:44.364Z,35.90
2023-04-08T03:58:11.304Z,36.27
2023-04-08T04:00:38.680Z,33.70
2023-04-08T04:03:05.452Z,40.17
2023-04-08T04:05:32.110Z,32.03
2023-04-08T04:07:58.685Z,35.60
2023-04-08T04:10:25.446Z,33.73
2023-04-08T04:12:52.060Z,29.47
2023-04-08T04:15:18.712Z,28.23
2023-04-08T04:17:47.397Z,35.20
2023-04-08T04:20:14.182Z,31.63
2023-04-08T04:22:40.700Z,29.73
2023-04-08T04:25:07.555Z,119.40
2023-04-08T04:27:34.148Z,30.83
2023-04-08T04:30:01.495Z,31.07
2023-04-08T04:32:28.344Z,27.87
2023-04-08T04:34:55.859Z,49.73
2023-04-08T04:37:22.654Z,31.50
2023-04-08T04:39:49.178Z,24.17
2023-04-08T04:42:15.813Z,22.57
2023-04-08T04:44:43.256Z,26.43
2023-04-08T04:47:09.822Z,29.27
2023-04-08T04:49:37.957Z,26.03
2023-04-08T04:52:08.220Z,27.73
2023-04-08T04:54:38.471Z,25.20
2023-04-08T04:57:05.777Z,24.33
2023-04-08T04:59:32.670Z,24.47
2023-04-08T05:01:59.374Z,26.03
2023-04-08T05:04:26.404Z,29.40
2023-04-08T05:06:52.945Z,29.23
2023-04-08T05:09:19.602Z,25.60
2023-04-08T05:11:46.212Z,29.77
2023-04-08T05:14:12.835Z,27.47
2023-04-08T05:16:39.508Z,30.67
2023-04-08T05:19:06.097Z,50.83
2023-04-08T05:21:32.795Z,32.97
2023-04-08T05:23:59.465Z,35.20
2023-04-08T05:26:26.441Z,33.40
2023-04-08T05:28:53.116Z,35.13
2023-04-08T05:31:19.796Z,28.80
2023-04-08T05:33:46.967Z,30.37
2023-04-08T05:36:13.784Z,30.57
2023-04-08T05:38:41.025Z,29.17
2023-04-08T05:41:07.716Z,29.83
2023-04-08T05:43:34.585Z,28.67
2023-04-08T05:46:01.201Z,31.60
2023-04-08T05:48:27.746Z,30.40
2023-04-08T05:50:54.321Z,29.37
2023-04-08T05:53:21.878Z,28.03
2023-04-08T05:55:48.495Z,31.17
2023-04-08T05:58:16.090Z,31.07
2023-04-08T06:00:42.793Z,31.90
2023-04-08T06:03:10.860Z,27.10
2023-04-08T06:05:37.554Z,34.33
2023-04-08T06:08:04.537Z,37.97
2023-04-08T06:10:31.545Z,35.00
2023-04-08T06:12:58.629Z,41.53
2023-04-08T06:15:26.069Z,36.10
2023-04-08T06:17:52.659Z,38.23
2023-04-08T06:20:19.283Z,38.73
2023-04-08T06:22:46.323Z,41.80
2023-04-08T06:25:12.892Z,42.87
2023-04-08T06:27:39.506Z,46.90
2023-04-08T06:30:06.440Z,44.00
2023-04-08T06:32:33.482Z,45.77
2023-04-08T06:35:00.197Z,48.33
2023-04-08T06:37:28.474Z,38.67
2023-04-08T06:39:55.564Z,42.60
2023-04-08T06:42:23.274Z,43.03
2023-04-08T06:45:16.275Z,44.53
2023-04-08T06:47:43.092Z,40.50
2023-04-08T06:50:09.989Z,37.57
2023-04-08T06:52:36.665Z,36.70
2023-04-08T06:55:03.368Z,44.07
2023-04-08T06:57:30.108Z,43.13
2023-04-08T06:59:57.325Z,39.47
2023-04-08T07:02:24.349Z,40.93
2023-04-08T07:04:51.069Z,44.43
2023-04-08T07:07:17.747Z,38.73
2023-04-08T07:09:46.092Z,36.00
2023-04-08T07:12:12.943Z,37.23
2023-04-08T07:14:39.577Z,35.83
2023-04-08T07:17:07.202Z,30.43
2023-04-08T07:19:33.788Z,32.53
2023-04-08T07:22:02.972Z,30.90
2023-04-08T07:24:29.690Z,34.33
2023-04-08T07:26:56.984Z,35.67
2023-04-08T07:29:25.823Z,35.10
2023-04-08T07:31:52.976Z,34.47
2023-04-08T07:34:19.884Z,36.17
2023-04-08T07:36:47.071Z,38.53
2023-04-08T07:39:13.713Z,32.53
2023-04-08T07:41:40.650Z,43.20
2023-04-08T07:44:07.777Z,50.97
2023-04-08T07:46:38.904Z,31.13
2023-04-08T07:49:08.920Z,488.83
2023-04-08T07:51:36.080Z,338.23
2023-04-08T07:57:02.270Z,108.40
2023-04-08T07:59:30.386Z,41.30
2023-04-08T08:01:58.176Z,33.33
2023-04-08T08:04:28.456Z,37.03
2023-04-08T08:06:56.773Z,29.60
2023-04-08T08:09:23.750Z,27.27
2023-04-08T08:11:50.415Z,25.47
2023-04-08T08:14:17.558Z,25.23
2023-04-08T08:16:44.809Z,25.63
2023-04-08T08:19:12.605Z,45.83
2023-04-08T08:21:39.724Z,27.83
2023-04-08T08:24:06.659Z,28.73
2023-04-08T08:26:37.231Z,31.53
2023-04-08T08:29:07.493Z,30.17
2023-04-08T08:31:35.529Z,30.43
2023-04-08T08:34:02.665Z,28.13
2023-04-08T08:36:32.757Z,27.27
2023-04-08T08:39:00.144Z,29.57
2023-04-08T08:41:26.782Z,27.07
2023-04-08T08:43:54.600Z,28.60
2023-04-08T08:46:21.639Z,30.40
2023-04-08T08:48:52.313Z,32.90
2023-04-08T08:51:19.225Z,26.73
2023-04-08T08:53:46.345Z,26.33
2023-04-08T08:56:18.252Z,29.17
2023-04-08T08:58:48.045Z,110.27
2023-04-08T09:01:31.803Z,40.40
2023-04-08T09:04:10.807Z,30.87
2023-04-08T09:06:37.946Z,24.23
2023-04-08T09:09:10.720Z,23.00
2023-04-08T09:11:41.495Z,25.07
2023-04-08T09:14:24.058Z,28.47
2023-04-08T09:16:51.348Z,25.40
2023-04-08T09:19:18.313Z,25.53
2023-04-08T09:21:45.075Z,22.90
2023-04-08T09:24:27.079Z,24.33
2023-04-08T09:26:53.744Z,22.63
2023-04-08T09:31:56.153Z,24.70
2023-04-08T09:34:23.406Z,22.27
2023-04-08T09:36:50.504Z,22.93
2023-04-08T09:39:17.229Z,24.37
2023-04-08T09:41:44.169Z,22.47
2023-04-08T09:44:11.990Z,24.10
2023-04-08T09:46:50.594Z,24.70
2023-04-08T09:49:26.972Z,23.90
2023-04-08T09:51:53.742Z,22.40
2023-04-08T09:54:21.464Z,19.60
2023-04-08T09:56:54.940Z,21.00
2023-04-08T09:59:22.317Z,18.37
2023-04-08T10:01:53.320Z,17.53
2023-04-08T10:04:21.469Z,17.50
2023-04-08T10:07:06.741Z,15.07
2023-04-08T10:09:33.791Z,13.03
2023-04-08T10:12:01.479Z,14.50
2023-04-08T10:14:28.926Z,8.73
2023-04-08T10:17:15.504Z,12.00
2023-04-08T10:19:43.181Z,12.13
2023-04-08T10:22:45.682Z,11.40
2023-04-08T10:25:15.952Z,11.93
2023-04-08T10:27:42.898Z,13.23
2023-04-08T10:30:32.985Z,13.40
2023-04-08T10:33:03.565Z,11.97
2023-04-08T10:35:30.747Z,11.27
2023-04-08T10:38:00.521Z,12.67
2023-04-08T10:40:27.374Z,13.13
2023-04-08T10:42:57.574Z,11.57
2023-04-08T10:45:27.783Z,11.73
2023-04-08T10:47:54.517Z,10.90
2023-04-08T10:50:24.429Z,17.53
2023-04-08T10:52:52.321Z,13.63
2023-04-08T10:55:25.526Z,13.67
2023-04-08T10:57:58.200Z,11.73
2023-04-08T11:00:38.302Z,12.43
2023-04-08T11:03:06.297Z,12.07
2023-04-08T11:05:34.045Z,12.83
2023-04-08T11:08:01.562Z,14.27
2023-04-08T11:10:29.773Z,11.47
2023-04-08T11:12:56.838Z,13.30
2023-04-08T11:15:27.007Z,11.73
2023-04-08T11:17:54.384Z,12.40
2023-04-08T11:20:22.088Z,11.47
2023-04-08T11:22:48.902Z,12.37
2023-04-08T11:25:16.100Z,11.93
2023-04-08T11:27:42.901Z,11.57
2023-04-08T11:30:09.795Z,12.17
2023-04-08T11:32:36.690Z,13.07
2023-04-08T11:35:06.484Z,11.60
2023-04-08T11:37:45.717Z,12.50
2023-04-08T11:40:13.423Z,11.90
2023-04-08T11:42:40.566Z,10.97
2023-04-08T11:45:12.813Z,11.77
2023-04-08T11:47:40.647Z,10.80
2023-04-08T11:50:07.516Z,11.30
2023-04-08T11:52:44.436Z,10.80
2023-04-08T11:55:26.971Z,12.50
2023-04-08T11:57:54.907Z,11.43
2023-04-08T12:00:21.795Z,11.50
2023-04-08T12:02:48.986Z,11.70
2023-04-08T12:05:16.347Z,10.13
2023-04-08T12:07:43.236Z,12.47
2023-04-08T12:10:10.586Z,11.70
2023-04-08T12:12:37.806Z,10.10
2023-04-08T12:15:04.809Z,11.53
2023-04-08T12:17:31.734Z,12.13
2023-04-08T12:19:58.636Z,11.13
2023-04-08T12:22:26.118Z,12.23
2023-04-08T12:24:52.848Z,11.70
2023-04-08T12:27:19.684Z,11.27
2023-04-08T12:29:46.388Z,12.63
2023-04-08T12:32:13.545Z,11.20
2023-04-08T12:34:40.605Z,13.03
2023-04-08T12:37:07.279Z,12.30
2023-04-08T12:39:34.210Z,10.80
2023-04-08T12:42:01.756Z,10.30
2023-04-08T12:44:28.609Z,13.77
2023-04-08T12:46:55.850Z,13.43
2023-04-08T12:49:23.429Z,17.27
2023-04-08T12:51:50.499Z,18.13
2023-04-08T12:54:17.228Z,14.27
2023-04-08T12:56:48.687Z,16.53
2023-04-08T12:59:15.610Z,16.27
2023-04-08T13:01:42.569Z,17.17
2023-04-08T13:04:10.461Z,17.23
2023-04-08T13:06:38.005Z,17.53
2023-04-08T13:09:04.668Z,16.57
2023-04-08T13:11:34.269Z,17.47
2023-04-08T13:14:01.346Z,17.60
2023-04-08T13:16:28.113Z,17.23
2023-04-08T13:18:54.759Z,19.47
2023-04-08T13:21:24.649Z,20.63
2023-04-08T13:23:51.315Z,17.53
2023-04-08T13:26:17.976Z,18.37
2023-04-08T13:31:16.699Z,19.97
2023-04-08T13:33:43.325Z,17.67
2023-04-08T13:36:09.995Z,21.03
2023-04-08T13:38:36.728Z,18.43
2023-04-08T13:41:04.235Z,18.27
2023-04-08T13:43:30.931Z,19.47
2023-04-08T13:45:58.739Z,19.03
2023-04-08T13:48:26.740Z,22.40
2023-04-08T13:50:54.537Z,25.67
2023-04-08T13:53:21.362Z,20.90
2023-04-08T13:55:51.004Z,21.90
2023-04-08T13:58:23.859Z,19.90
2023-04-08T14:00:51.998Z,23.57
2023-04-08T14:03:19.269Z,21.83
2023-04-08T14:05:46.184Z,22.13
2023-04-08T14:08:14.834Z,25.33
2023-04-08T14:10:44.179Z,21.93
2023-04-08T14:13:10.771Z,19.67
2023-04-08T14:15:43.873Z,18.27
2023-04-08T14:18:10.824Z,22.30
2023-04-08T14:20:37.498Z,20.17
2023-04-08T14:23:06.670Z,23.50
2023-04-08T14:25:33.483Z,22.63
2023-04-08T14:28:00.359Z,28.77
2023-04-08T14:30:27.604Z,23.47
2023-04-08T14:32:55.403Z,24.43
2023-04-08T14:35:22.097Z,24.37
2023-04-08T14:37:48.824Z,23.37
2023-04-08T14:40:15.489Z,22.37
2023-04-08T14:42:42.253Z,21.73
2023-04-08T14:45:09.076Z,21.80
2023-04-08T14:47:36.053Z,23.00
2023-04-08T14:50:02.846Z,26.13
2023-04-08T14:52:29.551Z,41.07
2023-04-08T14:54:56.457Z,29.80
2023-04-08T14:57:23.579Z,27.23
2023-04-08T14:59:50.292Z,21.43
2023-04-08T15:02:17.040Z,20.40
2023-04-08T15:04:43.782Z,18.67
2023-04-08T15:07:10.549Z,20.77
2023-04-08T15:09:37.184Z,20.43
2023-04-08T15:12:05.555Z,26.43
2023-04-08T15:14:32.753Z,20.80
2023-04-08T15:17:00.803Z,17.73
2023-04-08T15:19:29.688Z,21.00
2023-04-08T15:21:56.383Z,24.43
2023-04-08T15:24:22.977Z,26.27
2023-04-08T15:26:49.627Z,26.73
2023-04-08T15:29:17.178Z,26.73
2023-04-08T15:31:43.892Z,25.77
2023-04-08T15:34:10.619Z,23.87
2023-04-08T15:36:37.847Z,21.33
2023-04-08T15:39:04.415Z,21.80
2023-04-08T15:41:32.580Z,21.17
2023-04-08T15:43:59.312Z,27.43
2023-04-08T15:46:26.067Z,25.73
2023-04-08T15:48:52.978Z,23.57
2023-04-08T15:51:20.816Z,23.33
2023-04-08T15:53:51.778Z,22.80
2023-04-08T15:56:18.530Z,25.77
2023-04-08T15:58:46.569Z,22.07
2023-04-08T16:01:13.490Z,23.40
2023-04-08T16:03:40.157Z,24.23
2023-04-08T16:06:07.538Z,23.63
2023-04-08T16:08:34.885Z,24.67
2023-04-08T16:11:02.616Z,25.10
2023-04-08T16:13:30.971Z,22.73
2023-04-08T16:15:58.349Z,23.47
2023-04-08T16:18:25.344Z,23.10
2023-04-08T16:20:53.093Z,23.60
2023-04-08T16:23:20.191Z,25.63
2023-04-08T16:25:47.056Z,25.37
2023-04-08T16:28:13.784Z,26.87
2023-04-08T16:30:43.629Z,26.23
2023-04-08T16:33:11.369Z,26.73
2023-04-08T16:35:38.413Z,26.40
2023-04-08T16:38:05.120Z,33.33
2023-04-08T16:40:33.594Z,27.17
2023-04-08T16:43:04.921Z,29.07
2023-04-08T16:45:32.771Z,22.67
2023-04-08T16:48:00.569Z,39.60
2023-04-08T16:50:28.623Z,33.20
2023-04-08T16:52:55.337Z,28.77
2023-04-08T16:55:22.048Z,33.03
2023-04-08T16:57:48.748Z,28.50
2023-04-08T17:00:16.845Z,47.80
2023-04-08T17:02:44.865Z,27.50
2023-04-08T17:05:11.694Z,21.97
2023-04-08T17:07:38.330Z,21.23
2023-04-08T17:10:05.447Z,25.33
2023-04-08T17:12:32.764Z,24.50
2023-04-08T17:15:01.848Z,22.77
2023-04-08T17:17:28.551Z,22.90
2023-04-08T17:19:55.186Z,21.93
2023-04-08T17:22:22.001Z,20.60
2023-04-08T17:24:48.630Z,24.43
2023-04-08T17:27:15.214Z,20.13
2023-04-08T17:29:41.812Z,22.50
2023-04-08T17:32:08.819Z,25.07
2023-04-08T17:34:35.493Z,23.00
2023-04-08T17:37:02.485Z,21.67
2023-04-08T17:39:30.567Z,22.90
2023-04-08T17:41:57.717Z,22.43
2023-04-08T17:44:29.721Z,34.87
2023-04-08T17:46:56.734Z,25.73
2023-04-08T17:49:23.556Z,24.50
2023-04-08T17:51:51.321Z,22.10
2023-04-08T17:54:18.036Z,21.07
2023-04-08T17:56:45.791Z,24.63
2023-04-08T17:59:14.605Z,27.03
2023-04-08T18:01:41.530Z,27.17
2023-04-08T18:04:08.743Z,44.30
2023-04-08T18:06:35.712Z,40.70
2023-04-08T18:09:03.890Z,28.73
2023-04-08T18:11:32.071Z,24.93
2023-04-08T18:13:58.693Z,24.77
2023-04-08T18:16:25.700Z,22.73
2023-04-08T18:18:52.386Z,26.67
2023-04-08T18:21:22.460Z,25.70
2023-04-08T18:23:49.377Z,26.73
2023-04-08T18:26:19.513Z,23.20
2023-04-08T18:28:46.585Z,26.03
2023-04-08T18:31:14.218Z,28.60
2023-04-08T18:33:42.312Z,30.90
2023-04-08T18:36:10.642Z,28.03
2023-04-08T18:38:40.045Z,26.37
2023-04-08T18:41:09.173Z,24.80
2023-04-08T18:43:35.889Z,25.30
2023-04-08T18:46:04.882Z,30.27
2023-04-08T18:48:31.716Z,29.43
2023-04-08T18:51:01.852Z,29.53
2023-04-08T18:53:29.352Z,31.57
2023-04-08T18:55:56.378Z,32.70
2023-04-08T18:58:22.987Z,30.20
2023-04-08T19:00:49.576Z,31.33
2023-04-08T19:03:19.621Z,29.57
2023-04-08T19:05:46.724Z,34.50
2023-04-08T19:08:13.555Z,38.77
2023-04-08T19:10:41.716Z,43.33
2023-04-08T19:13:12.065Z,45.13
2023-04-08T19:15:39.647Z,39.80
2023-04-08T19:18:12.361Z,39.93
2023-04-08T19:20:39.886Z,42.27
2023-04-08T19:23:07.125Z,39.03
2023-04-08T19:25:33.865Z,43.37
2023-04-08T19:28:00.661Z,44.70
2023-04-08T19:30:28.354Z,44.90
2023-04-08T19:32:57.407Z,47.50
2023-04-08T19:35:24.394Z,45.00
2023-04-08T19:37:51.170Z,41.70
2023-04-08T19:40:20.862Z,51.10
2023-04-08T19:42:47.581Z,49.70
2023-04-08T19:45:16.118Z,45.30
2023-04-08T19:47:47.232Z,40.90
2023-04-08T19:50:15.755Z,52.00
2023-04-08T19:52:42.571Z,48.23
2023-04-08T19:55:15.425Z,52.10
2023-04-08T19:57:42.094Z,48.43
2023-04-08T20:00:08.938Z,45.80
2023-04-08T20:02:37.722Z,45.40
2023-04-08T20:05:04.563Z,53.33
2023-04-08T20:07:31.159Z,53.83
2023-04-08T20:09:57.882Z,42.37
2023-04-08T20:12:24.527Z,58.17
2023-04-08T20:14:51.223Z,39.90
2023-04-08T20:17:20.942Z,52.87
2023-04-08T20:19:48.026Z,52.93
2023-04-08T20:22:15.989Z,50.90
2023-04-08T20:24:44.341Z,48.47
2023-04-08T20:27:11.469Z,68.00
2023-04-08T20:29:38.530Z,48.43
2023-04-08T20:32:06.126Z,52.37
2023-04-08T20:34:32.930Z,46.53
2023-04-08T20:36:59.662Z,51.87
2023-04-08T20:39:31.146Z,46.97
2023-04-08T20:42:00.901Z,39.13
2023-04-08T20:44:27.520Z,43.10
2023-04-08T20:46:56.241Z,44.57
2023-04-08T20:49:22.861Z,45.73
2023-04-08T20:51:49.789Z,36.90
2023-04-08T20:54:16.386Z,51.37
2023-04-08T20:56:43.784Z,52.83
2023-04-08T20:59:11.755Z,50.00
2023-04-08T21:01:39.882Z,45.17
2023-04-08T21:04:06.491Z,40.33
2023-04-08T21:06:33.420Z,49.17
2023-04-08T21:09:00.035Z,41.37
2023-04-08T21:11:28.507Z,39.83
2023-04-08T21:13:55.128Z,55.20
2023-04-08T21:16:21.903Z,50.70
2023-04-08T21:18:48.476Z,49.20
2023-04-08T21:21:15.062Z,60.87
2023-04-08T21:23:41.685Z,59.43
2023-04-08T21:26:12.041Z,54.83
2023-04-08T21:28:40.078Z,56.03
2023-04-08T21:31:10.181Z,53.13
2023-04-08T21:33:37.613Z,46.67
2023-04-08T21:36:04.576Z,58.93
2023-04-08T21:38:31.369Z,51.73
2023-04-08T21:40:58.206Z,66.20
2023-04-08T21:43:24.822Z,59.27
2023-04-08T21:45:53.499Z,59.77
2023-04-08T21:48:20.363Z,65.43
2023-04-08T21:50:47.102Z,51.23
2023-04-08T21:53:13.735Z,75.87
2023-04-08T21:55:40.300Z,68.70
2023-04-08T21:58:08.167Z,69.70
2023-04-08T22:00:35.013Z,63.47
2023-04-08T22:03:02.568Z,71.40
2023-04-08T22:05:29.265Z,71.87
2023-04-08T22:07:55.949Z,59.33
2023-04-08T22:10:22.543Z,60.80
2023-04-08T22:12:49.181Z,55.37
2023-04-08T22:15:16.782Z,56.70
2023-04-08T22:17:43.486Z,50.23
2023-04-08T22:20:10.448Z,55.87
2023-04-08T22:22:37.020Z,59.47
2023-04-08T22:25:03.789Z,54.07
2023-04-08T22:27:30.444Z,54.20
2023-04-08T22:29:57.001Z,56.07
2023-04-08T22:32:23.652Z,56.97
2023-04-08T22:34:50.770Z,55.27
2023-04-08T22:37:17.902Z,58.93
2023-04-08T22:39:44.510Z,60.17
2023-04-08T22:42:11.350Z,60.67
2023-04-08T22:44:38.756Z,59.20
2023-04-08T22:47:05.411Z,60.97
2023-04-08T22:49:31.923Z,54.07
2023-04-08T22:51:58.603Z,54.87
2023-04-08T22:54:25.721Z,56.70
2023-04-08T22:56:52.300Z,59.47
2023-04-08T22:59:18.976Z,62.87
2023-04-08T23:01:45.647Z,64.33
2023-04-08T23:04:12.423Z,65.37
2023-04-08T23:06:39.094Z,65.87
2023-04-08T23:09:05.835Z,57.90
2023-04-08T23:11:32.412Z,59.57
2023-04-08T23:13:59.009Z,58.47
2023-04-08T23:16:25.652Z,53.63
2023-04-08T23:18:52.454Z,55.30
2023-04-08T23:21:21.043Z,58.93
2023-04-08T23:23:47.617Z,60.07
2023-04-08T23:26:17.974Z,53.67
2023-04-08T23:28:44.767Z,55.50
2023-04-08T23:31:11.606Z,59.50
2023-04-08T23:33:38.183Z,60.33
2023-04-08T23:36:11.465Z,60.27
2023-04-08T23:38:39.385Z,63.80
2023-04-08T23:41:06.237Z,71.20
2023-04-08T23:43:32.976Z,66.83
2023-04-08T23:45:59.481Z,69.70
2023-04-08T23:48:26.062Z,65.97
2023-04-08T23:50:54.881Z,65.83
2023-04-08T23:53:21.745Z,68.70
2023-04-08T23:55:48.403Z,73.00
2023-04-08T23:58:16.030Z,65.10
